createdAt,value
2023-04-06T00:00:28.180Z,262.36
2023-04-06T00:01:23.305Z,260.90
2023-04-06T00:02:18.591Z,260.69
2023-04-06T00:03:13.618Z,261.73
2023-04-06T00:04:08.902Z,260.48
2023-04-06T00:05:03.840Z,261.10
2023-04-06T00:05:58.998Z,261.31
2023-04-06T00:06:54.257Z,266.40
2023-04-06T00:07:49.310Z,265.97
2023-04-06T00:08:44.443Z,265.33
2023-04-06T00:09:39.705Z,268.14
2023-04-06T00:10:34.758Z,272.83
2023-04-06T00:11:29.996Z,271.47
2023-04-06T00:12:25.041Z,270.13
2023-04-06T00:13:20.256Z,263.83
2023-04-06T00:14:15.464Z,262.78
2023-04-06T00:15:10.651Z,260.69
2023-04-06T00:16:05.871Z,259.04
2023-04-06T00:17:01.154Z,259.66
2023-04-06T00:17:56.171Z,261.73
2023-04-06T00:18:51.529Z,262.15
2023-04-06T00:19:46.409Z,264.05
2023-04-06T00:20:41.570Z,260.69
2023-04-06T00:21:36.776Z,258.02
2023-04-06T00:22:31.933Z,254.82
2023-04-06T00:23:27.111Z,257.01
2023-04-06T00:24:22.292Z,257.62
2023-04-06T00:25:17.454Z,256.21
2023-04-06T00:26:12.624Z,257.42
2023-04-06T00:27:07.936Z,255.41
2023-04-06T00:28:03.086Z,252.46
2023-04-06T00:28:58.413Z,253.05
2023-04-06T00:29:53.509Z,251.69
2023-04-06T00:30:48.676Z,252.08
2023-04-06T00:31:43.920Z,252.08
2023-04-06T00:32:38.964Z,253.64
2023-04-06T00:33:34.111Z,255.01
2023-04-06T00:34:29.457Z,253.83
2023-04-06T00:35:24.508Z,257.01
2023-04-06T00:36:19.615Z,257.62
2023-04-06T00:37:14.907Z,258.23
2023-04-06T00:38:09.955Z,260.07
2023-04-06T00:39:05.214Z,260.27
2023-04-06T00:40:00.259Z,258.02
2023-04-06T00:40:55.479Z,259.45
2023-04-06T00:41:50.616Z,260.69
2023-04-06T00:42:45.807Z,265.33
2023-04-06T00:43:40.952Z,270.58
2023-04-06T00:44:36.163Z,271.92
2023-04-06T00:45:31.182Z,271.70
2023-04-06T00:46:26.373Z,271.47
2023-04-06T00:47:21.628Z,271.02
2023-04-06T00:48:16.721Z,270.58
2023-04-06T00:49:11.948Z,269.47
2023-04-06T00:50:07.130Z,270.13
2023-04-06T00:51:02.345Z,265.11
2023-04-06T00:51:57.492Z,261.73
2023-04-06T00:52:52.641Z,261.52
2023-04-06T00:53:47.869Z,261.52
2023-04-06T00:54:43.765Z,263.83
2023-04-06T00:55:38.914Z,263.62
2023-04-06T00:56:34.072Z,262.36
2023-04-06T00:57:29.309Z,263.20
2023-04-06T00:58:24.460Z,260.27
2023-04-06T00:59:19.811Z,259.86
2023-04-06T01:00:14.749Z,259.25
2023-04-06T01:01:10.021Z,258.43
2023-04-06T01:02:05.796Z,256.41
2023-04-06T01:03:01.059Z,255.41
2023-04-06T01:03:56.463Z,254.62
2023-04-06T01:04:52.130Z,251.30
2023-04-06T01:05:47.376Z,246.95
2023-04-06T01:06:43.213Z,244.20
2023-04-06T01:07:38.424Z,239.39
2023-04-06T01:08:33.854Z,238.52
2023-04-06T01:09:29.776Z,235.27
2023-04-06T01:10:24.865Z,235.44
2023-04-06T01:11:20.087Z,236.45
2023-04-06T01:12:16.351Z,235.44
2023-04-06T01:13:11.626Z,236.62
2023-04-06T01:14:07.423Z,235.77
2023-04-06T01:15:02.644Z,234.26
2023-04-06T01:15:57.993Z,232.60
2023-04-06T01:16:53.674Z,227.44
2023-04-06T01:17:49.013Z,222.96
2023-04-06T01:18:44.690Z,215.63
2023-04-06T01:19:39.917Z,207.32
2023-04-06T01:20:35.217Z,203.84
2023-04-06T01:21:31.098Z,200.85
2023-04-06T01:22:26.202Z,200.97
2023-04-06T01:23:21.457Z,202.58
2023-04-06T01:24:17.846Z,204.86
2023-04-06T01:25:13.185Z,207.58
2023-04-06T01:26:08.984Z,208.90
2023-04-06T01:27:04.186Z,211.46
2023-04-06T01:27:59.475Z,211.05
2023-04-06T01:28:55.260Z,214.50
2023-04-06T01:29:50.480Z,215.35
2023-04-06T01:30:46.497Z,213.11
2023-04-06T01:31:41.616Z,207.98
2023-04-06T01:32:37.011Z,172.39
2023-04-06T01:33:32.929Z,152.40
2023-04-06T01:34:28.034Z,148.86
2023-04-06T01:35:23.294Z,154.80
2023-04-06T01:36:19.700Z,155.23
2023-04-06T01:37:14.990Z,161.70
2023-04-06T01:38:11.008Z,168.56
2023-04-06T01:39:06.455Z,171.86
2023-04-06T01:40:01.510Z,172.93
2023-04-06T01:40:57.270Z,174.37
2023-04-06T01:41:52.671Z,175.47
2023-04-06T01:42:48.387Z,174.01
2023-04-06T01:43:43.530Z,174.01
2023-04-06T01:44:38.957Z,173.11
2023-04-06T01:45:34.683Z,173.83
2023-04-06T01:46:30.013Z,175.10
2023-04-06T01:47:25.378Z,175.66
2023-04-06T01:48:21.519Z,176.59
2023-04-06T01:49:16.878Z,176.03
2023-04-06T01:50:12.579Z,175.29
2023-04-06T01:51:07.826Z,174.92
2023-04-06T01:52:02.952Z,175.10
2023-04-06T01:52:58.842Z,174.19
2023-04-06T01:53:54.033Z,174.19
2023-04-06T01:54:49.929Z,173.29
2023-04-06T01:55:45.092Z,174.19
2023-04-06T01:56:40.466Z,171.86
2023-04-06T01:57:36.152Z,174.37
2023-04-06T01:58:31.530Z,176.59
2023-04-06T01:59:26.702Z,176.40
2023-04-06T02:00:23.144Z,177.90
2023-04-06T02:01:18.543Z,178.10
2023-04-06T02:02:13.799Z,178.48
2023-04-06T02:03:08.987Z,178.48
2023-04-06T02:04:05.415Z,176.59
2023-04-06T02:05:00.581Z,176.40
2023-04-06T02:05:55.904Z,175.10
2023-04-06T02:06:52.032Z,174.01
2023-04-06T02:07:47.424Z,174.55
2023-04-06T02:08:43.133Z,173.47
2023-04-06T02:09:38.500Z,170.98
2023-04-06T02:10:33.731Z,170.98
2023-04-06T02:11:29.464Z,169.24
2023-04-06T02:12:24.696Z,168.22
2023-04-06T02:13:20.474Z,167.21
2023-04-06T02:14:15.659Z,164.41
2023-04-06T02:15:10.997Z,159.54
2023-04-06T02:16:06.766Z,155.81
2023-04-06T02:17:02.013Z,155.52
2023-04-06T02:17:57.361Z,155.09
2023-04-06T02:18:53.621Z,155.38
2023-04-06T02:19:48.902Z,156.40
2023-04-06T02:20:44.213Z,158.32
2023-04-06T02:21:39.438Z,161.39
2023-04-06T02:22:34.742Z,165.22
2023-04-06T02:23:29.844Z,167.04
2023-04-06T02:24:24.889Z,168.39
2023-04-06T02:25:20.015Z,173.11
2023-04-06T02:26:15.289Z,176.77
2023-04-06T02:27:10.465Z,178.10
2023-04-06T02:28:05.669Z,181.19
2023-04-06T02:29:00.679Z,183.38
2023-04-06T02:29:55.776Z,184.80
2023-04-06T02:30:50.764Z,183.99
2023-04-06T02:31:45.837Z,184.19
2023-04-06T02:32:41.022Z,185.83
2023-04-06T02:33:35.934Z,185.52
2023-04-06T02:34:34.311Z,186.79
2023-04-06T02:35:29.422Z,188.72
2023-04-06T02:36:24.437Z,189.48
2023-04-06T02:37:19.540Z,189.26
2023-04-06T02:38:14.556Z,190.25
2023-04-06T02:39:09.718Z,191.14
2023-04-06T02:40:04.609Z,191.47
2023-04-06T02:40:59.628Z,192.26
2023-04-06T02:41:54.855Z,191.47
2023-04-06T02:42:49.729Z,192.82
2023-04-06T02:43:44.719Z,191.92
2023-04-06T02:44:39.805Z,191.25
2023-04-06T02:45:34.789Z,192.03
2023-04-06T02:46:30.091Z,193.05
2023-04-06T02:47:25.125Z,194.08
2023-04-06T02:48:20.186Z,193.28
2023-04-06T02:49:15.185Z,192.82
2023-04-06T02:50:10.340Z,191.70
2023-04-06T02:51:05.393Z,190.36
2023-04-06T02:52:00.577Z,188.94
2023-04-06T02:52:55.412Z,187.43
2023-04-06T02:53:50.556Z,186.45
2023-04-06T02:54:45.583Z,185.83
2023-04-06T02:55:40.757Z,183.99
2023-04-06T02:56:35.844Z,182.38
2023-04-06T02:57:30.995Z,179.82
2023-04-06T02:58:26.013Z,178.86
2023-04-06T02:59:21.215Z,173.83
2023-04-06T03:00:16.200Z,169.93
2023-04-06T03:01:11.307Z,165.88
2023-04-06T03:02:06.392Z,161.39
2023-04-06T03:03:01.485Z,161.08
2023-04-06T03:04:00.552Z,157.43
2023-04-06T03:04:55.661Z,155.38
2023-04-06T03:05:50.608Z,152.68
2023-04-06T03:06:45.978Z,154.80
2023-04-06T03:07:40.892Z,153.38
2023-04-06T03:08:36.058Z,158.63
2023-04-06T03:09:31.267Z,164.41
2023-04-06T03:10:26.572Z,170.28
2023-04-06T03:11:22.458Z,171.33
2023-04-06T03:12:17.674Z,174.74
2023-04-06T03:13:12.796Z,177.53
2023-04-06T03:14:08.140Z,177.90
2023-04-06T03:15:03.410Z,178.86
2023-04-06T03:15:58.731Z,178.29
2023-04-06T03:16:54.104Z,177.72
2023-04-06T03:17:49.334Z,169.59
2023-04-06T03:18:44.618Z,162.01
2023-04-06T03:19:39.847Z,158.63
2023-04-06T03:20:34.992Z,150.34
2023-04-06T03:21:30.321Z,147.16
2023-04-06T03:22:25.763Z,148.20
2023-04-06T03:23:20.915Z,153.10
2023-04-06T03:24:16.080Z,158.78
2023-04-06T03:25:11.369Z,161.23
2023-04-06T03:26:06.657Z,163.92
2023-04-06T03:27:01.919Z,163.92
2023-04-06T03:27:56.839Z,161.39
2023-04-06T03:28:51.998Z,159.69
2023-04-06T03:29:47.044Z,156.99
2023-04-06T03:30:46.105Z,155.09
2023-04-06T03:31:41.326Z,157.43
2023-04-06T03:32:36.662Z,157.58
2023-04-06T03:33:32.339Z,157.43
2023-04-06T03:34:27.804Z,158.78
2023-04-06T03:35:22.906Z,159.08
2023-04-06T03:36:19.407Z,157.13
2023-04-06T03:37:14.541Z,141.18
2023-04-06T03:38:10.375Z,140.00
2023-04-06T03:39:05.509Z,144.23
2023-04-06T03:40:00.762Z,148.73
2023-04-06T03:40:56.480Z,152.12
2023-04-06T03:41:51.777Z,154.94
2023-04-06T03:42:47.656Z,150.34
2023-04-06T03:46:04.624Z,146.25
2023-04-06T03:46:59.054Z,148.20
2023-04-06T03:47:54.022Z,149.80
2023-04-06T03:48:49.306Z,151.84
2023-04-06T03:49:44.604Z,152.54
2023-04-06T03:50:39.887Z,153.10
2023-04-06T03:51:35.356Z,151.71
2023-04-06T03:52:30.449Z,148.86
2023-04-06T03:53:25.753Z,147.94
2023-04-06T03:54:20.997Z,146.12
2023-04-06T03:55:16.342Z,146.00
2023-04-06T03:56:11.911Z,145.11
2023-04-06T03:57:06.929Z,143.73
2023-04-06T03:58:02.186Z,145.11
2023-04-06T03:58:57.582Z,145.11
2023-04-06T03:59:52.665Z,144.61
2023-04-06T04:00:47.944Z,144.73
2023-04-06T04:01:43.369Z,144.61
2023-04-06T04:02:38.559Z,143.24
2023-04-06T04:03:33.750Z,144.23
2023-04-06T04:04:28.971Z,144.86
2023-04-06T04:05:24.400Z,146.51
2023-04-06T04:06:19.822Z,148.20
2023-04-06T04:07:14.746Z,148.60
2023-04-06T04:08:10.042Z,148.73
2023-04-06T04:09:05.289Z,143.12
2023-04-06T04:10:00.588Z,140.23
2023-04-06T04:10:55.868Z,139.76
2023-04-06T04:11:51.233Z,140.94
2023-04-06T04:12:46.377Z,138.37
2023-04-06T04:13:41.673Z,133.07
2023-04-06T04:14:36.838Z,133.07
2023-04-06T04:15:32.081Z,137.01
2023-04-06T04:16:27.569Z,141.18
2023-04-06T04:17:22.766Z,144.98
2023-04-06T04:18:17.966Z,146.12
2023-04-06T04:19:13.156Z,143.86
2023-04-06T04:20:08.403Z,142.75
2023-04-06T04:21:03.910Z,144.86
2023-04-06T04:21:58.930Z,135.12
2023-04-06T04:22:54.237Z,129.36
2023-04-06T04:23:49.498Z,132.55
2023-04-06T04:24:44.853Z,132.55
2023-04-06T04:25:40.198Z,132.44
2023-04-06T04:26:35.589Z,133.07
2023-04-06T04:27:30.530Z,134.14
2023-04-06T04:28:25.733Z,134.58
2023-04-06T04:29:20.889Z,128.96
2023-04-06T04:30:16.230Z,127.39
2023-04-06T04:31:11.710Z,129.66
2023-04-06T04:32:06.945Z,132.44
2023-04-06T04:33:02.060Z,133.50
2023-04-06T04:33:57.278Z,134.36
2023-04-06T04:34:52.515Z,135.12
2023-04-06T04:35:47.922Z,136.78
2023-04-06T04:36:43.261Z,137.69
2023-04-06T04:37:38.519Z,137.69
2023-04-06T04:38:33.737Z,136.56
2023-04-06T04:39:29.136Z,136.56
2023-04-06T04:40:24.389Z,135.89
2023-04-06T04:41:19.640Z,135.12
2023-04-06T04:42:14.879Z,125.66
2023-04-06T04:43:10.275Z,111.70
2023-04-06T04:44:05.461Z,95.43
2023-04-06T04:45:00.811Z,83.49
2023-04-06T04:45:56.200Z,79.90
2023-04-06T04:46:51.531Z,88.26
2023-04-06T04:47:46.803Z,94.67
2023-04-06T04:48:42.156Z,94.65
2023-04-06T04:49:37.398Z,95.47
2023-04-06T04:50:32.831Z,98.05
2023-04-06T04:51:28.114Z,105.62
2023-04-06T04:52:23.504Z,112.68
2023-04-06T04:53:18.852Z,117.02
2023-04-06T04:54:14.380Z,120.66
2023-04-06T04:55:09.687Z,124.35
2023-04-06T04:56:05.345Z,127.48
2023-04-06T04:57:00.645Z,129.16
2023-04-06T04:57:55.994Z,130.78
2023-04-06T04:58:51.342Z,131.71
2023-04-06T04:59:46.732Z,131.19
2023-04-06T05:00:42.054Z,130.37
2023-04-06T05:01:51.306Z,130.68
2023-04-06T05:02:33.826Z,132.13
2023-04-06T05:03:28.318Z,132.76
2023-04-06T05:04:23.635Z,132.65
2023-04-06T05:05:19.128Z,133.50
2023-04-06T05:06:14.335Z,115.56
2023-04-06T05:07:09.825Z,113.21
2023-04-06T05:08:05.026Z,119.37
2023-04-06T05:09:00.516Z,122.97
2023-04-06T05:09:55.854Z,123.15
2023-04-06T05:10:51.201Z,127.19
2023-04-06T05:11:46.502Z,131.92
2023-04-06T05:12:41.882Z,134.14
2023-04-06T05:13:37.145Z,139.64
2023-04-06T05:14:32.580Z,144.11
2023-04-06T05:15:28.111Z,148.07
2023-04-06T05:16:23.494Z,149.53
2023-04-06T05:17:18.797Z,152.12
2023-04-06T05:18:14.201Z,151.15
2023-04-06T05:19:09.846Z,149.80
2023-04-06T05:20:05.218Z,148.33
2023-04-06T05:21:00.428Z,149.80
2023-04-06T05:21:55.819Z,140.70
2023-04-06T05:22:51.195Z,139.29
2023-04-06T05:23:46.881Z,142.38
2023-04-06T05:24:42.422Z,138.60
2023-04-06T05:25:37.706Z,131.71
2023-04-06T05:26:33.100Z,130.47
2023-04-06T05:27:28.508Z,128.46
2023-04-06T05:28:23.909Z,128.96
2023-04-06T05:29:19.373Z,121.63
2023-04-06T05:30:15.029Z,101.38
2023-04-06T05:31:10.147Z,94.33
2023-04-06T05:32:05.488Z,97.02
2023-04-06T05:33:00.871Z,99.93
2023-04-06T05:33:56.289Z,104.75
2023-04-06T05:34:51.849Z,112.53
2023-04-06T05:35:47.138Z,120.57
2023-04-06T05:36:42.588Z,128.46
2023-04-06T05:37:37.908Z,129.16
2023-04-06T05:38:33.316Z,127.68
2023-04-06T05:39:28.738Z,130.37
2023-04-06T05:40:24.351Z,130.88
2023-04-06T05:41:19.795Z,131.71
2023-04-06T05:42:15.290Z,134.04
2023-04-06T05:43:10.718Z,126.42
2023-04-06T05:44:06.257Z,127.39
2023-04-06T05:45:01.846Z,127.09
2023-04-06T05:45:57.275Z,127.00
2023-04-06T05:46:52.828Z,127.29
2023-04-06T05:47:48.276Z,129.96
2023-04-06T05:48:43.772Z,130.68
2023-04-06T05:49:39.098Z,132.55
2023-04-06T05:50:34.565Z,135.67
2023-04-06T05:51:30.078Z,137.46
2023-04-06T05:52:25.550Z,137.23
2023-04-06T05:53:20.990Z,135.89
2023-04-06T05:54:16.442Z,134.68
2023-04-06T05:55:11.927Z,136.22
2023-04-06T05:56:07.386Z,135.23
2023-04-06T05:57:02.875Z,136.11
2023-04-06T05:57:58.328Z,135.45
2023-04-06T05:58:53.954Z,137.01
2023-04-06T05:59:49.594Z,137.01
2023-04-06T06:00:44.908Z,138.60
2023-04-06T06:01:40.494Z,139.41
2023-04-06T06:02:35.975Z,139.06
2023-04-06T06:03:31.332Z,137.69
2023-04-06T06:04:26.791Z,136.34
2023-04-06T06:05:22.367Z,134.36
2023-04-06T06:06:17.777Z,131.71
2023-04-06T06:07:13.335Z,127.68
2023-04-06T06:08:08.927Z,128.56
2023-04-06T06:09:04.387Z,126.04
2023-04-06T06:09:59.912Z,125.66
2023-04-06T06:10:55.436Z,126.81
2023-04-06T06:11:51.060Z,126.04
2023-04-06T06:12:46.516Z,121.54
2023-04-06T06:13:42.034Z,121.54
2023-04-06T06:14:37.463Z,121.10
2023-04-06T06:15:33.062Z,120.49
2023-04-06T06:16:28.511Z,122.79
2023-04-06T06:17:23.958Z,124.44
2023-04-06T06:18:19.297Z,128.66
2023-04-06T06:19:14.825Z,131.92
2023-04-06T06:20:10.514Z,134.90
2023-04-06T06:21:05.823Z,133.93
2023-04-06T06:22:01.148Z,133.18
2023-04-06T06:22:56.857Z,132.34
2023-04-06T06:23:52.274Z,132.76
2023-04-06T06:24:47.806Z,132.44
2023-04-06T06:25:43.350Z,129.86
2023-04-06T06:26:38.781Z,127.68
2023-04-06T06:27:34.149Z,125.66
2023-04-06T06:28:29.673Z,123.70
2023-04-06T06:29:24.923Z,125.19
2023-04-06T06:30:22.898Z,125.85
2023-04-06T06:31:15.750Z,127.68
2023-04-06T06:32:11.227Z,129.86
2023-04-06T06:33:06.843Z,130.88
2023-04-06T06:34:02.266Z,131.29
2023-04-06T06:34:57.663Z,121.90
2023-04-06T06:35:53.093Z,118.43
2023-04-06T06:36:49.892Z,117.77
2023-04-06T06:37:43.946Z,115.32
2023-04-06T06:38:39.326Z,115.89
2023-04-06T06:39:35.996Z,113.99
2023-04-06T06:40:31.395Z,116.53
2023-04-06T06:41:26.820Z,118.69
2023-04-06T06:42:22.234Z,120.40
2023-04-06T06:43:17.637Z,121.54
2023-04-06T06:44:13.147Z,122.43
2023-04-06T06:45:08.758Z,121.36
2023-04-06T06:46:04.036Z,122.25
2023-04-06T06:46:59.494Z,122.61
2023-04-06T06:47:55.687Z,121.81
2023-04-06T06:48:49.994Z,119.45
2023-04-06T06:49:45.107Z,115.01
2023-04-06T06:50:40.066Z,115.09
2023-04-06T06:51:35.075Z,119.11
2023-04-06T06:52:30.087Z,119.97
2023-04-06T06:53:25.065Z,120.05
2023-04-06T06:54:20.075Z,120.14
2023-04-06T06:55:17.902Z,119.97
2023-04-06T06:56:12.936Z,119.79
2023-04-06T06:57:07.939Z,120.05
2023-04-06T06:58:03.055Z,120.40
2023-04-06T06:58:57.988Z,122.43
2023-04-06T06:59:53.159Z,123.43
2023-04-06T07:00:48.144Z,119.37
2023-04-06T07:01:43.312Z,117.93
2023-04-06T07:02:39.510Z,118.35
2023-04-06T07:03:34.876Z,120.92
2023-04-06T07:04:30.264Z,120.57
2023-04-06T07:05:28.645Z,115.09
2023-04-06T07:06:21.120Z,115.09
2023-04-06T07:07:16.706Z,114.14
2023-04-06T07:08:11.949Z,118.18
2023-04-06T07:09:07.465Z,117.85
2023-04-06T07:10:02.754Z,119.20
2023-04-06T07:10:58.299Z,120.57
2023-04-06T07:11:53.655Z,117.77
2023-04-06T07:12:49.069Z,116.70
2023-04-06T07:13:44.469Z,119.28
2023-04-06T07:14:39.941Z,119.79
2023-04-06T07:15:35.512Z,113.60
2023-04-06T07:16:31.246Z,106.90
2023-04-06T07:17:26.612Z,104.89
2023-04-06T07:18:25.553Z,104.62
2023-04-06T07:19:21.166Z,105.42
2023-04-06T07:20:16.397Z,105.42
2023-04-06T07:21:11.728Z,99.86
2023-04-06T07:22:07.290Z,104.43
2023-04-06T07:23:02.848Z,107.87
2023-04-06T07:23:58.280Z,109.50
2023-04-06T07:24:53.851Z,108.57
2023-04-06T07:25:49.329Z,107.73
2023-04-06T07:26:44.839Z,107.94
2023-04-06T07:27:40.450Z,107.66
2023-04-06T07:28:35.918Z,105.35
2023-04-06T07:29:31.405Z,100.95
2023-04-06T07:30:26.779Z,96.35
2023-04-06T07:31:22.371Z,94.49
2023-04-06T07:32:17.381Z,95.32
2023-04-06T07:33:12.459Z,94.92
2023-04-06T07:34:07.631Z,94.49
2023-04-06T07:35:02.675Z,94.67
2023-04-06T07:36:03.012Z,94.67
2023-04-06T07:36:58.374Z,95.32
2023-04-06T07:37:53.835Z,95.65
2023-04-06T07:38:49.536Z,97.30
2023-04-06T07:39:45.012Z,100.17
2023-04-06T07:40:40.400Z,99.99
2023-04-06T07:41:37.023Z,100.71
2023-04-06T07:42:32.495Z,103.91
2023-04-06T07:43:28.281Z,107.94
2023-04-06T07:44:23.739Z,108.57
2023-04-06T07:45:19.215Z,114.93
2023-04-06T07:46:15.279Z,118.60
2023-04-06T07:47:10.612Z,125.47
2023-04-06T07:48:06.394Z,127.58
2023-04-06T07:49:01.881Z,129.56
2023-04-06T07:49:57.366Z,132.76
2023-04-06T07:50:53.172Z,137.80
2023-04-06T07:51:48.661Z,144.61
2023-04-06T07:52:44.154Z,155.09
2023-04-06T07:53:40.464Z,161.23
2023-04-06T07:54:35.726Z,169.93
2023-04-06T07:55:31.447Z,172.75
2023-04-06T07:56:27.035Z,161.23
2023-04-06T07:57:22.521Z,164.73
2023-04-06T07:58:18.438Z,168.56
2023-04-06T07:59:13.925Z,177.15
2023-04-06T08:00:09.768Z,182.58
2023-04-06T08:01:05.106Z,182.18
2023-04-06T08:02:00.589Z,180.60
2023-04-06T08:02:56.431Z,184.19
2023-04-06T08:03:51.838Z,186.47
2023-04-06T08:04:47.197Z,180.60
2023-04-06T08:05:43.818Z,174.74
2023-04-06T08:06:39.152Z,185.83
2023-04-06T08:07:35.217Z,193.73
2023-04-06T08:08:30.561Z,201.59
2023-04-06T08:09:26.112Z,212.56
2023-04-06T08:10:21.984Z,212.42
2023-04-06T08:11:17.472Z,219.82
2023-04-06T08:12:13.231Z,244.74
2023-04-06T08:13:08.600Z,278.86
2023-04-06T08:14:04.055Z,296.49
2023-04-06T08:15:00.139Z,303.63
2023-04-06T08:15:55.592Z,308.48
2023-04-06T08:16:51.068Z,310.52
2023-04-06T08:17:47.410Z,312.60
2023-04-06T08:18:42.828Z,317.74
2023-04-06T08:19:38.826Z,319.91
2023-04-06T08:20:34.220Z,308.19
2023-04-06T08:21:29.611Z,319.29
2023-04-06T08:22:25.520Z,332.22
2023-04-06T08:23:20.940Z,351.81
2023-04-06T08:24:16.854Z,344.42
2023-04-06T08:25:12.244Z,361.90
2023-04-06T08:26:07.608Z,380.61
2023-04-06T08:27:03.457Z,367.99
2023-04-06T08:27:58.967Z,363.50
2023-04-06T08:28:54.418Z,372.58
2023-04-06T08:29:50.774Z,370.48
2023-04-06T08:30:46.193Z,335.27
2023-04-06T08:31:42.150Z,346.97
2023-04-06T08:32:37.705Z,368.40
2023-04-06T08:33:33.102Z,389.28
2023-04-06T08:34:28.811Z,375.57
2023-04-06T08:35:24.290Z,399.54
2023-04-06T08:36:19.816Z,409.35
2023-04-06T08:37:14.861Z,417.82
2023-04-06T08:38:09.892Z,407.60
2023-04-06T08:39:04.946Z,405.12
2023-04-06T08:39:59.994Z,402.92
2023-04-06T08:40:55.010Z,408.10
2023-04-06T08:41:50.040Z,429.94
2023-04-06T08:42:45.095Z,462.44
2023-04-06T08:43:40.179Z,481.82
2023-04-06T08:44:35.222Z,489.96
2023-04-06T08:45:32.318Z,477.33
2023-04-06T08:46:27.415Z,483.91
2023-04-06T08:47:24.698Z,501.76
2023-04-06T08:48:17.489Z,518.53
2023-04-06T08:49:12.618Z,528.39
2023-04-06T08:50:07.680Z,505.94
2023-04-06T08:51:02.675Z,488.52
2023-04-06T08:51:57.814Z,510.98
2023-04-06T08:52:52.844Z,544.80
2023-04-06T08:53:47.996Z,550.19
2023-04-06T08:54:43.321Z,561.78
2023-04-06T08:55:38.777Z,574.36
2023-04-06T08:56:34.457Z,582.39
2023-04-06T08:57:29.935Z,599.67
2023-04-06T08:58:37.271Z,602.38
2023-04-06T08:59:22.270Z,625.55
2023-04-06T09:00:16.553Z,656.33
2023-04-06T09:01:12.494Z,695.34
2023-04-06T09:02:07.828Z,705.64
2023-04-06T09:03:02.888Z,724.03
2023-04-06T09:03:57.983Z,720.90
2023-04-06T09:04:53.019Z,664.18
2023-04-06T09:05:47.958Z,713.19
2023-04-06T09:06:43.071Z,748.74
2023-04-06T09:07:38.042Z,769.90
2023-04-06T09:08:33.194Z,821.54
2023-04-06T09:09:28.144Z,879.45
2023-04-06T09:10:23.178Z,933.57
2023-04-06T09:11:18.150Z,970.91
2023-04-06T09:12:13.200Z,990.36
2023-04-06T09:13:08.576Z,974.45
2023-04-06T09:14:04.169Z,970.91
2023-04-06T09:14:59.505Z,923.88
2023-04-06T09:15:55.064Z,923.88
2023-04-06T09:16:50.738Z,1033.28
2023-04-06T09:17:46.093Z,1098.77
2023-04-06T09:18:41.970Z,1062.05
2023-04-06T09:19:37.432Z,1038.10
2023-04-06T09:20:32.718Z,1066.29
2023-04-06T09:21:28.720Z,1131.36
2023-04-06T09:22:24.097Z,1127.53
2023-04-06T09:23:19.688Z,1112.50
2023-04-06T09:24:15.637Z,1078.35
2023-04-06T09:25:10.945Z,997.01
2023-04-06T09:26:06.709Z,923.88
2023-04-06T09:27:02.155Z,929.67
2023-04-06T09:27:58.737Z,852.49
2023-04-06T09:28:53.441Z,850.32
2023-04-06T09:29:48.810Z,908.16
2023-04-06T09:30:44.731Z,913.76
2023-04-06T09:31:40.195Z,1106.05
2023-04-06T09:32:35.445Z,1332.33
2023-04-06T09:33:31.226Z,1470.26
2023-04-06T09:34:26.586Z,1433.94
2023-04-06T09:35:21.840Z,1438.58
2023-04-06T09:36:17.878Z,1418.70
2023-04-06T09:37:13.290Z,1429.34
2023-04-06T09:38:08.981Z,1362.24
2023-04-06T09:39:04.268Z,1320.47
2023-04-06T09:39:59.701Z,1366.43
2023-04-06T09:41:01.119Z,1327.04
2023-04-06T09:41:51.642Z,1387.73
2023-04-06T09:42:46.398Z,1504.22
2023-04-06T09:43:41.893Z,1513.60
2023-04-06T09:46:05.875Z,1670.84
2023-04-06T09:47:00.879Z,1546.03
2023-04-06T09:47:54.871Z,1467.03
2023-04-06T09:48:50.205Z,1622.11
2023-04-06T09:49:45.435Z,1463.82
2023-04-06T09:50:40.739Z,1351.21
2023-04-06T09:51:37.014Z,1347.12
2023-04-06T09:52:31.583Z,1653.25
2023-04-06T09:53:27.049Z,1958.91
2023-04-06T09:54:22.374Z,1195.17
2023-04-06T09:55:17.703Z,1101.48
2023-04-06T09:56:13.093Z,1144.94
2023-04-06T09:57:08.314Z,1263.01
2023-04-06T09:58:03.400Z,1523.97
2023-04-06T09:58:58.957Z,1796.77
2023-04-06T09:59:54.325Z,1850.31
2023-04-06T10:00:51.644Z,2012.06
2023-04-06T10:01:45.390Z,2258.88
2023-04-06T10:02:40.855Z,2414.10
2023-04-06T10:03:36.251Z,2582.21
2023-04-06T10:04:31.591Z,2792.89
2023-04-06T10:05:26.888Z,2699.70
2023-04-06T10:06:22.250Z,2648.81
2023-04-06T10:07:17.462Z,2902.17
2023-04-06T10:08:12.873Z,3016.95
2023-04-06T10:09:08.302Z,3205.28
2023-04-06T10:10:03.883Z,3476.56
2023-04-06T10:10:59.254Z,3729.05
2023-04-06T10:11:54.599Z,3892.13
2023-04-06T10:12:49.941Z,3917.83
2023-04-06T10:13:45.363Z,4117.19
2023-04-06T10:14:40.805Z,4021.08
2023-04-06T10:15:36.242Z,3943.87
2023-04-06T10:16:31.845Z,4060.84
2023-04-06T10:17:27.054Z,4224.68
2023-04-06T10:18:22.454Z,3695.50
2023-04-06T10:19:18.046Z,4051.59
2023-04-06T10:20:13.273Z,4129.93
2023-04-06T10:21:08.824Z,4133.13
2023-04-06T10:22:04.112Z,4427.86
2023-04-06T10:22:59.424Z,4591.57
2023-04-06T10:23:54.812Z,4651.57
2023-04-06T10:24:50.303Z,4521.59
2023-04-06T10:25:45.816Z,4568.01
2023-04-06T10:26:41.230Z,4755.12
2023-04-06T10:27:36.460Z,4921.66
2023-04-06T10:28:31.858Z,4944.44
2023-04-06T10:29:27.686Z,4521.59
2023-04-06T10:30:22.894Z,4114.02
2023-04-06T10:31:18.445Z,4261.77
2023-04-06T10:32:13.941Z,4188.23
2023-04-06T10:33:09.426Z,4494.95
2023-04-06T10:34:04.832Z,4823.85
2023-04-06T10:35:00.269Z,5032.99
2023-04-06T10:35:55.683Z,5042.49
2023-04-06T10:36:51.188Z,4995.32
2023-04-06T10:37:46.470Z,5139.56
2023-04-06T10:38:42.161Z,5179.44
2023-04-06T10:39:37.554Z,4926.20
2023-04-06T10:40:32.808Z,4387.84
2023-04-06T10:41:28.213Z,3773.85
2023-04-06T10:42:23.625Z,3442.94
2023-04-06T10:43:19.110Z,3670.10
2023-04-06T10:44:14.529Z,3086.71
2023-04-06T10:45:09.997Z,2943.77
2023-04-06T10:46:05.464Z,3520.10
2023-04-06T10:47:01.179Z,4027.15
2023-04-06T10:47:56.319Z,4405.94
2023-04-06T10:48:51.856Z,4623.38
2023-04-06T10:49:47.437Z,4858.96
2023-04-06T10:50:42.583Z,5159.42
2023-04-06T10:51:37.985Z,5179.44
2023-04-06T10:52:33.442Z,5266.27
2023-04-06T10:53:28.829Z,5225.05
2023-04-06T10:54:24.335Z,4671.92
2023-04-06T10:55:19.718Z,5329.34
2023-04-06T10:56:15.212Z,5632.91
2023-04-06T10:57:10.709Z,5662.78
2023-04-06T10:58:05.918Z,5705.13
2023-04-06T10:59:01.328Z,5842.45
2023-04-06T10:59:56.922Z,5868.13
2023-04-06T11:00:52.331Z,6148.53
2023-04-06T11:01:47.662Z,6180.56
2023-04-06T11:02:43.200Z,6312.06
2023-04-06T11:03:38.523Z,6584.46
2023-04-06T11:04:33.994Z,6568.27
2023-04-06T11:05:29.404Z,6323.27
2023-04-06T11:06:24.798Z,6134.40
2023-04-06T11:07:20.475Z,5656.78
2023-04-06T11:08:15.761Z,5717.35
2023-04-06T11:09:11.389Z,5881.06
2023-04-06T11:10:16.693Z,5933.33
2023-04-06T11:11:03.104Z,6054.42
2023-04-06T11:11:57.572Z,5816.99
2023-04-06T11:12:53.067Z,5476.92
2023-04-06T11:13:48.394Z,5510.84
2023-04-06T11:14:43.805Z,5415.82
2023-04-06T11:15:39.586Z,5754.31
2023-04-06T11:16:34.592Z,6027.09
2023-04-06T11:17:29.972Z,6040.72
2023-04-06T11:18:25.231Z,5986.55
2023-04-06T11:19:20.739Z,6278.66
2023-04-06T11:20:16.239Z,6500.30
2023-04-06T11:21:11.766Z,6453.17
2023-04-06T11:22:07.201Z,6691.73
2023-04-06T11:23:02.573Z,6917.10
2023-04-06T11:23:58.028Z,7082.23
2023-04-06T11:24:53.470Z,7115.26
2023-04-06T11:25:48.877Z,6708.54
2023-04-06T11:26:44.380Z,6793.89
2023-04-06T11:27:39.668Z,6472.73
2023-04-06T11:28:35.217Z,6645.92
2023-04-06T11:29:30.502Z,6881.44
2023-04-06T11:30:25.917Z,6772.35
2023-04-06T11:31:21.374Z,5798.05